createdAt,value
2018-12-31T00:02:43.032Z,62.20
2018-12-31T00:05:27.431Z,62.10
2018-12-31T00:08:15.152Z,61.80
2018-12-31T00:10:58.372Z,61.20
2018-12-31T00:13:41.996Z,60.80
2018-12-31T00:16:24.927Z,60.90
2018-12-31T00:19:11.236Z,61.60
2018-12-31T00:21:53.727Z,61.40
2018-12-31T00:24:39.192Z,61.80
2018-12-31T00:27:26.709Z,62.30
2018-12-31T00:30:11.037Z,62.70
2018-12-31T00:32:56.202Z,62.60
2018-12-31T00:35:40.004Z,62.90
2018-12-31T00:38:23.372Z,62.80
2018-12-31T00:41:06.767Z,61.50
2018-12-31T00:43:50.182Z,59.70
2018-12-31T00:46:34.492Z,59.70
2018-12-31T00:49:18.839Z,59.50
2018-12-31T00:52:02.320Z,60.20
2018-12-31T00:54:45.784Z,60.90
2018-12-31T00:57:32.230Z,60.90
2018-12-31T01:00:15.693Z,61.10
2018-12-31T01:02:59.965Z,61.30
2018-12-31T01:05:35.741Z,61.50
2018-12-31T01:11:20.232Z,61.60
2018-12-31T01:14:03.689Z,61.50
2018-12-31T01:16:47.056Z,62.00
2018-12-31T01:19:30.559Z,61.80
2018-12-31T01:22:13.307Z,62.20
2018-12-31T01:24:56.202Z,62.50
2018-12-31T01:27:38.871Z,62.90
2018-12-31T01:30:23.295Z,63.20
2018-12-31T01:33:13.771Z,63.50
2018-12-31T01:35:58.688Z,64.00
2018-12-31T01:38:43.299Z,64.40
2018-12-31T01:41:30.457Z,64.60
2018-12-31T01:44:11.913Z,65.40
2018-12-31T01:46:55.420Z,66.60
2018-12-31T01:49:30.592Z,66.60
2018-12-31T01:55:29.452Z,67.90
2018-12-31T01:58:12.706Z,68.40
2018-12-31T02:00:57.105Z,69.50
2018-12-31T02:03:39.792Z,69.90
2018-12-31T02:06:25.304Z,70.00
2018-12-31T02:09:10.816Z,71.40
2018-12-31T02:11:54.413Z,72.60
2018-12-31T02:14:37.462Z,74.40
2018-12-31T02:17:23.862Z,75.10
2018-12-31T02:20:06.556Z,76.50
2018-12-31T02:22:51.278Z,77.60
2018-12-31T02:25:34.352Z,78.10
2018-12-31T02:30:59.272Z,80.40
2018-12-31T02:33:42.259Z,81.50
2018-12-31T02:36:26.570Z,82.60
2018-12-31T02:39:28.572Z,84.10
2018-12-31T02:42:03.670Z,85.50
2018-12-31T02:44:47.411Z,88.50
2018-12-31T02:47:30.467Z,89.80
2018-12-31T02:50:15.410Z,91.00
2018-12-31T02:52:59.631Z,92.00
2018-12-31T02:55:47.251Z,93.80
2018-12-31T02:58:30.479Z,94.20
2018-12-31T03:01:16.805Z,95.60
2018-12-31T03:03:50.691Z,97.70
2018-12-31T03:06:23.999Z,98.20
2018-12-31T03:09:16.733Z,99.40
2018-12-31T03:15:15.094Z,99.90
2018-12-31T03:17:58.305Z,99.90
2018-12-31T03:20:41.348Z,99.90
2018-12-31T03:26:07.187Z,99.90
2018-12-31T03:28:51.635Z,99.90
2018-12-31T03:31:35.044Z,99.90
2018-12-31T03:34:19.175Z,99.90
2018-12-31T03:37:01.900Z,99.90
2018-12-31T03:39:45.656Z,99.90
2018-12-31T03:42:29.065Z,99.90
2018-12-31T03:45:15.105Z,99.90
2018-12-31T03:47:59.419Z,99.90
2018-12-31T03:50:43.010Z,99.90
2018-12-31T03:53:26.576Z,99.90
2018-12-31T03:56:13.934Z,99.90
2018-12-31T03:58:56.520Z,99.90
2018-12-31T04:01:30.362Z,99.90
2018-12-31T04:04:22.931Z,99.90
2018-12-31T04:07:07.205Z,99.90
2018-12-31T04:09:51.178Z,99.90
2018-12-31T04:12:34.442Z,99.90
2018-12-31T04:15:17.607Z,99.90
2018-12-31T04:18:01.576Z,99.90
2018-12-31T04:20:45.804Z,99.90
2018-12-31T04:23:30.458Z,99.90
2018-12-31T04:26:05.332Z,99.90
2018-12-31T04:28:38.522Z,99.90
2018-12-31T04:31:29.999Z,99.90
2018-12-31T04:34:12.960Z,99.90
2018-12-31T04:36:58.233Z,99.90
2018-12-31T04:39:42.385Z,99.90
2018-12-31T04:42:26.740Z,99.90
2018-12-31T04:45:11.460Z,99.90
2018-12-31T04:47:55.502Z,99.90
2018-12-31T04:50:39.047Z,99.90
2018-12-31T04:53:22.549Z,99.90
2018-12-31T04:56:06.644Z,99.90
2018-12-31T04:58:50.128Z,99.90
2018-12-31T05:01:33.714Z,99.90
2018-12-31T05:10:23.268Z,99.90
2018-12-31T05:15:49.247Z,99.90
2018-12-31T05:18:32.728Z,99.90
2018-12-31T05:21:16.573Z,99.90
2018-12-31T05:23:59.497Z,99.90
2018-12-31T05:26:42.949Z,99.90
2018-12-31T05:29:26.079Z,99.90
2018-12-31T05:32:09.550Z,99.90
2018-12-31T05:34:52.846Z,99.90
2018-12-31T05:37:36.174Z,99.90
2018-12-31T05:40:20.218Z,99.90
2018-12-31T05:43:03.566Z,99.90
2018-12-31T05:45:46.960Z,99.90
2018-12-31T05:48:20.649Z,99.90
2018-12-31T05:51:04.084Z,99.90
2018-12-31T05:53:47.311Z,99.90
2018-12-31T05:56:30.441Z,99.90
2018-12-31T05:59:13.413Z,99.90
2018-12-31T06:01:56.112Z,99.90
2018-12-31T06:04:40.287Z,99.90
2018-12-31T06:07:25.076Z,99.90
2018-12-31T06:10:08.327Z,99.90
2018-12-31T06:12:51.330Z,99.90
2018-12-31T06:15:34.504Z,99.90
2018-12-31T06:18:18.371Z,99.90
2018-12-31T06:21:01.665Z,99.90
2018-12-31T06:23:49.279Z,99.90
2018-12-31T06:26:32.309Z,99.90
2018-12-31T06:29:15.835Z,99.90
2018-12-31T06:31:59.027Z,99.90
2018-12-31T06:34:41.977Z,99.90
2018-12-31T06:37:25.345Z,99.90
2018-12-31T06:40:08.791Z,99.90
2018-12-31T06:42:52.192Z,99.90
2018-12-31T06:45:35.609Z,99.90
2018-12-31T06:48:19.155Z,99.90
2018-12-31T06:51:02.513Z,99.90
2018-12-31T06:53:45.437Z,99.90
2018-12-31T06:56:28.584Z,99.90
2018-12-31T06:59:13.436Z,99.90
2018-12-31T07:01:57.946Z,99.90
2018-12-31T07:04:41.168Z,99.90
2018-12-31T07:07:24.251Z,99.90
2018-12-31T07:10:07.168Z,99.90
2018-12-31T07:12:50.130Z,99.90
2018-12-31T07:15:24.280Z,99.90
2018-12-31T07:17:57.745Z,99.90
2018-12-31T07:20:32.344Z,99.90
2018-12-31T07:23:05.609Z,99.90
2018-12-31T07:25:41.627Z,99.90
2018-12-31T07:28:14.944Z,99.90
2018-12-31T07:30:48.411Z,99.90
2018-12-31T07:33:21.728Z,99.90
2018-12-31T07:35:55.236Z,99.90
2018-12-31T07:38:28.730Z,99.90
2018-12-31T07:41:02.248Z,99.90
2018-12-31T07:43:35.688Z,99.90
2018-12-31T07:46:09.247Z,99.90
2018-12-31T07:48:42.676Z,99.90
2018-12-31T07:51:16.165Z,99.90
2018-12-31T07:53:49.568Z,99.90
2018-12-31T07:56:22.881Z,99.90
2018-12-31T07:58:56.272Z,99.90
2018-12-31T08:01:29.659Z,99.90
2018-12-31T08:04:02.898Z,99.90
2018-12-31T08:06:36.362Z,99.90
2018-12-31T08:09:11.000Z,99.90
2018-12-31T08:11:44.519Z,99.90
2018-12-31T08:14:20.673Z,99.90
2018-12-31T08:16:55.360Z,99.90
2018-12-31T08:19:28.763Z,99.90
2018-12-31T08:22:02.050Z,99.90
2018-12-31T08:24:35.395Z,99.90
2018-12-31T08:27:08.911Z,99.90
2018-12-31T08:29:42.174Z,99.90
2018-12-31T08:32:15.514Z,99.90
2018-12-31T08:34:48.887Z,99.90
2018-12-31T08:37:22.468Z,99.90
2018-12-31T08:39:55.941Z,99.90
2018-12-31T08:42:29.386Z,99.90
2018-12-31T08:45:02.832Z,99.90
2018-12-31T08:47:36.287Z,99.90
2018-12-31T08:50:10.147Z,99.90
2018-12-31T08:52:43.669Z,99.90
2018-12-31T08:55:17.137Z,99.90
2018-12-31T08:57:50.607Z,99.90
2018-12-31T09:00:24.019Z,99.90
2018-12-31T09:02:57.468Z,99.90
2018-12-31T09:05:30.894Z,99.90
2018-12-31T09:08:04.421Z,99.90
2018-12-31T09:10:38.416Z,99.90
2018-12-31T09:13:11.954Z,99.90
2018-12-31T09:15:45.359Z,99.90
2018-12-31T09:18:19.111Z,99.90
2018-12-31T09:20:52.541Z,99.90
2018-12-31T09:23:25.881Z,99.90
2018-12-31T09:25:59.174Z,99.90
2018-12-31T09:28:32.603Z,99.90
2018-12-31T09:31:07.746Z,99.90
2018-12-31T09:33:41.011Z,99.90
2018-12-31T09:36:14.466Z,99.90
2018-12-31T09:38:47.949Z,99.90
2018-12-31T09:41:21.312Z,99.90
2018-12-31T09:43:54.643Z,99.90
2018-12-31T09:46:27.960Z,99.90
2018-12-31T09:49:01.497Z,99.90
2018-12-31T09:51:36.792Z,99.90
2018-12-31T09:54:10.118Z,99.90
2018-12-31T09:56:43.511Z,99.90
2018-12-31T09:59:16.943Z,99.90
2018-12-31T10:01:50.220Z,99.90
2018-12-31T10:04:23.561Z,99.90
2018-12-31T10:06:56.854Z,99.90
2018-12-31T10:09:30.168Z,99.90
2018-12-31T10:12:03.433Z,99.90
2018-12-31T10:14:39.524Z,99.90
2018-12-31T10:17:12.772Z,99.90
2018-12-31T10:19:46.302Z,99.90
2018-12-31T10:22:19.548Z,99.90
2018-12-31T10:24:52.865Z,99.90
2018-12-31T10:27:26.100Z,99.90
2018-12-31T10:29:59.425Z,99.90
2018-12-31T10:32:32.633Z,99.90
2018-12-31T10:35:05.945Z,99.90
2018-12-31T10:37:39.232Z,99.90
2018-12-31T10:40:13.179Z,99.90
2018-12-31T10:42:46.603Z,99.90
2018-12-31T10:45:20.041Z,99.90
2018-12-31T10:47:53.285Z,99.90
2018-12-31T10:50:26.714Z,99.90
2018-12-31T10:53:00.085Z,99.90
2018-12-31T10:55:33.401Z,99.90
2018-12-31T10:58:06.817Z,99.90
2018-12-31T11:00:40.312Z,99.90
2018-12-31T11:03:13.735Z,99.90
2018-12-31T11:05:47.227Z,99.90
2018-12-31T11:08:20.655Z,99.90
2018-12-31T11:10:54.165Z,99.90
2018-12-31T11:13:27.555Z,99.90
2018-12-31T11:16:01.372Z,99.90
2018-12-31T11:18:34.782Z,99.90
2018-12-31T11:21:08.124Z,99.90
2018-12-31T11:23:41.453Z,99.90
2018-12-31T11:26:14.800Z,99.90
2018-12-31T11:28:48.161Z,99.90
2018-12-31T11:31:21.907Z,99.90
2018-12-31T11:33:55.207Z,99.90
2018-12-31T11:36:28.657Z,99.90
2018-12-31T11:39:02.023Z,99.90
2018-12-31T11:41:35.328Z,99.90
2018-12-31T11:44:08.610Z,99.90
2018-12-31T11:46:42.187Z,99.90
2018-12-31T11:49:15.544Z,99.90
2018-12-31T11:51:49.077Z,99.90
2018-12-31T11:54:22.484Z,99.90
2018-12-31T11:56:56.135Z,99.90
2018-12-31T11:59:29.620Z,99.90
2018-12-31T12:02:03.208Z,99.90
2018-12-31T12:04:36.641Z,99.90
2018-12-31T12:07:11.397Z,99.90
2018-12-31T12:09:44.815Z,99.90
2018-12-31T12:12:18.290Z,99.90
2018-12-31T12:14:51.811Z,99.90
2018-12-31T12:17:27.143Z,99.90
2018-12-31T12:20:00.532Z,99.90
2018-12-31T12:22:34.478Z,99.90
2018-12-31T12:25:07.798Z,99.90
2018-12-31T12:27:41.327Z,99.90
2018-12-31T12:30:14.637Z,99.90
2018-12-31T12:32:51.271Z,99.90
2018-12-31T12:35:26.265Z,99.90
2018-12-31T12:38:15.010Z,99.90
2018-12-31T12:41:29.708Z,99.90
2018-12-31T12:44:30.618Z,99.90
2018-12-31T12:47:26.833Z,99.90
2018-12-31T12:50:12.625Z,99.90
2018-12-31T12:53:20.650Z,99.90
2018-12-31T12:56:08.829Z,99.90
2018-12-31T12:58:48.872Z,99.90
2018-12-31T13:01:37.127Z,99.90
2018-12-31T13:04:23.388Z,99.90
2018-12-31T13:06:56.888Z,99.90
2018-12-31T13:09:45.462Z,99.90
2018-12-31T13:12:17.335Z,99.90
2018-12-31T13:14:53.294Z,99.90
2018-12-31T13:17:26.824Z,99.90
2018-12-31T13:20:04.226Z,99.90
2018-12-31T13:22:37.757Z,99.90
2018-12-31T13:25:20.533Z,99.90
2018-12-31T13:28:09.316Z,99.90
2018-12-31T13:30:42.452Z,99.90
2018-12-31T13:33:16.184Z,99.90
2018-12-31T13:35:49.676Z,99.90
2018-12-31T13:38:23.292Z,99.90
2018-12-31T13:41:01.108Z,99.90
2018-12-31T13:43:38.648Z,99.90
2018-12-31T13:46:12.209Z,99.90
2018-12-31T13:48:45.801Z,99.90
2018-12-31T13:51:19.480Z,99.90
2018-12-31T13:56:28.504Z,99.90
2018-12-31T13:59:22.367Z,99.90
2018-12-31T14:02:40.974Z,99.90
2018-12-31T14:05:16.376Z,99.90
2018-12-31T14:07:49.847Z,99.90
2018-12-31T14:10:23.374Z,99.90
2018-12-31T14:12:56.859Z,99.90
2018-12-31T14:15:30.289Z,99.90
2018-12-31T14:18:03.680Z,99.90
2018-12-31T14:20:43.000Z,99.90
2018-12-31T14:25:52.502Z,99.90
2018-12-31T14:28:26.190Z,99.90
2018-12-31T14:30:59.664Z,99.90
2018-12-31T14:33:32.964Z,99.90
2018-12-31T14:36:06.232Z,99.90
2018-12-31T14:38:44.889Z,99.90
2018-12-31T14:41:18.562Z,99.90
2018-12-31T14:43:48.232Z,99.90
2018-12-31T14:46:17.976Z,99.90
2018-12-31T14:48:47.748Z,99.90
2018-12-31T14:51:21.289Z,99.90
2018-12-31T14:53:55.976Z,99.90
2018-12-31T14:56:31.540Z,99.90
2018-12-31T14:59:12.194Z,99.90
2018-12-31T15:01:47.012Z,99.90
2018-12-31T15:04:20.751Z,99.90
2018-12-31T15:06:54.368Z,99.90
2018-12-31T15:09:27.844Z,99.90
2018-12-31T15:12:01.378Z,99.90
2018-12-31T15:14:37.039Z,99.90
2018-12-31T15:17:10.616Z,99.90
2018-12-31T15:19:45.088Z,99.90
2018-12-31T15:22:18.571Z,99.90
2018-12-31T15:24:54.057Z,99.90
2018-12-31T15:27:28.814Z,99.90
2018-12-31T15:30:02.805Z,99.90
2018-12-31T15:32:37.248Z,99.90
2018-12-31T15:35:11.036Z,99.90
2018-12-31T15:37:46.450Z,99.90
2018-12-31T15:40:19.972Z,99.90
2018-12-31T15:42:53.484Z,99.90
2018-12-31T15:45:28.955Z,99.90
2018-12-31T15:48:01.974Z,99.90
2018-12-31T15:50:36.579Z,99.90
2018-12-31T15:53:10.993Z,99.90
2018-12-31T15:55:44.186Z,99.90
2018-12-31T15:58:18.713Z,99.90
2018-12-31T16:00:52.221Z,99.90
2018-12-31T16:03:25.725Z,99.90
2018-12-31T16:05:59.387Z,99.90
2018-12-31T16:08:37.254Z,99.90
2018-12-31T16:11:10.736Z,99.90
2018-12-31T16:13:44.308Z,99.90
2018-12-31T16:16:17.805Z,99.90
2018-12-31T16:18:51.391Z,99.90
2018-12-31T16:21:31.713Z,99.80
2018-12-31T16:24:13.025Z,99.90
2018-12-31T16:26:46.479Z,97.30
2018-12-31T16:29:20.099Z,97.00
2018-12-31T16:31:53.630Z,97.20
2018-12-31T16:34:26.996Z,96.70
2018-12-31T16:37:03.384Z,95.20
2018-12-31T16:39:36.874Z,94.20
2018-12-31T16:42:10.624Z,91.60
2018-12-31T16:44:44.045Z,88.20
2018-12-31T16:47:18.132Z,88.70
2018-12-31T16:49:52.919Z,84.30
2018-12-31T16:52:33.809Z,72.70
2018-12-31T16:55:06.805Z,73.10
2018-12-31T16:57:40.037Z,70.50
2018-12-31T17:00:13.786Z,71.30
2018-12-31T17:02:47.598Z,70.10
2018-12-31T17:05:21.152Z,66.30
2018-12-31T17:07:54.511Z,67.00
2018-12-31T17:10:28.211Z,67.30
2018-12-31T17:13:01.639Z,66.80
2018-12-31T17:15:36.869Z,67.70
2018-12-31T17:18:10.130Z,68.70
2018-12-31T17:20:43.516Z,68.10
2018-12-31T17:23:16.910Z,67.80
2018-12-31T17:25:50.447Z,67.00
2018-12-31T17:28:23.762Z,65.00
2018-12-31T17:30:57.277Z,66.20
2018-12-31T17:33:30.701Z,65.50
2018-12-31T17:36:04.031Z,64.80
2018-12-31T17:38:38.144Z,63.80
2018-12-31T17:41:11.577Z,65.00
2018-12-31T17:43:45.100Z,64.00
2018-12-31T17:46:18.636Z,64.30
2018-12-31T17:48:51.921Z,64.90
2018-12-31T17:51:25.474Z,65.00
2018-12-31T17:53:58.761Z,63.80
2018-12-31T17:56:32.285Z,62.50
2018-12-31T17:59:06.249Z,61.90
2018-12-31T18:01:39.842Z,64.50
2018-12-31T18:04:13.396Z,64.70
2018-12-31T18:06:47.038Z,64.70
2018-12-31T18:09:20.567Z,63.50
2018-12-31T18:11:54.208Z,65.00
2018-12-31T18:14:27.633Z,63.80
2018-12-31T18:17:01.191Z,64.40
2018-12-31T18:19:34.652Z,64.10
2018-12-31T18:22:08.060Z,64.60
2018-12-31T18:24:41.543Z,65.60
2018-12-31T18:27:14.880Z,65.60
2018-12-31T18:29:48.289Z,65.50
2018-12-31T18:32:21.833Z,64.30
2018-12-31T18:34:58.167Z,64.70
2018-12-31T18:37:31.927Z,65.40
2018-12-31T18:40:05.310Z,66.00
2018-12-31T18:42:38.829Z,65.80
2018-12-31T18:45:13.050Z,64.60
2018-12-31T18:47:46.531Z,64.60
2018-12-31T18:50:19.862Z,63.60
2018-12-31T18:52:54.100Z,64.60
2018-12-31T18:55:27.672Z,64.70
2018-12-31T18:58:01.155Z,65.20
2018-12-31T19:00:34.593Z,65.00
2018-12-31T19:03:07.993Z,64.70
2018-12-31T19:06:07.370Z,64.30
2018-12-31T19:08:40.937Z,63.80
2018-12-31T19:11:15.397Z,64.20
2018-12-31T19:13:49.621Z,64.20
2018-12-31T19:16:25.769Z,64.10
2018-12-31T19:19:08.329Z,63.20
2018-12-31T19:21:41.849Z,63.20
2018-12-31T19:24:15.547Z,63.80
2018-12-31T19:26:49.005Z,62.20
2018-12-31T19:30:34.484Z,62.50
2018-12-31T19:33:30.268Z,62.00
2018-12-31T19:36:42.473Z,62.00
2018-12-31T19:43:04.825Z,58.40
2018-12-31T19:46:18.736Z,58.80
2018-12-31T19:48:54.851Z,58.60
2018-12-31T19:51:59.402Z,58.80
2018-12-31T19:54:45.926Z,59.00
2018-12-31T19:57:19.500Z,58.50
2018-12-31T20:02:31.608Z,58.70
2018-12-31T20:05:05.109Z,58.00
2018-12-31T20:07:38.775Z,58.60
2018-12-31T20:10:13.589Z,58.20
2018-12-31T20:12:43.322Z,58.70
2018-12-31T20:15:13.018Z,57.90
2018-12-31T20:17:46.405Z,57.70
2018-12-31T20:20:19.975Z,57.00
2018-12-31T20:22:54.192Z,56.90
2018-12-31T20:25:54.026Z,57.00
2018-12-31T20:29:06.968Z,57.30
2018-12-31T20:35:09.241Z,57.70
2018-12-31T20:37:57.283Z,58.00
2018-12-31T20:40:43.573Z,56.90
2018-12-31T20:46:44.463Z,57.10
2018-12-31T20:49:38.902Z,56.50
2018-12-31T20:52:26.765Z,55.80
2018-12-31T20:55:03.174Z,55.70
2018-12-31T21:04:02.646Z,55.40
2018-12-31T21:10:21.938Z,53.00
2018-12-31T21:12:59.388Z,52.70
2018-12-31T21:15:39.842Z,53.20
2018-12-31T21:18:13.307Z,52.80
2018-12-31T21:20:47.155Z,52.70
2018-12-31T21:23:20.710Z,53.10
2018-12-31T21:35:59.565Z,52.20
2018-12-31T21:39:09.798Z,50.50
2018-12-31T21:42:35.750Z,50.50
2018-12-31T21:53:17.732Z,49.50
2018-12-31T21:56:03.617Z,49.00
2018-12-31T22:06:45.865Z,49.00
2018-12-31T22:10:16.288Z,49.30
2018-12-31T22:13:42.697Z,48.20
2018-12-31T22:28:13.985Z,45.80
2018-12-31T22:38:28.384Z,44.90
2018-12-31T22:40:58.647Z,43.80
2018-12-31T22:43:32.673Z,44.40
2018-12-31T22:46:05.915Z,44.40
2018-12-31T22:48:39.420Z,44.10
2018-12-31T22:51:12.760Z,44.40
2018-12-31T22:53:46.309Z,44.20
2018-12-31T22:56:19.693Z,44.60
2018-12-31T22:58:53.270Z,44.60
2018-12-31T23:01:26.725Z,44.70
2018-12-31T23:04:00.507Z,44.80
2018-12-31T23:06:36.291Z,45.00
2018-12-31T23:09:13.660Z,44.40
2018-12-31T23:11:47.470Z,44.10
2018-12-31T23:14:21.859Z,43.00
2018-12-31T23:16:59.538Z,42.90
2018-12-31T23:19:33.098Z,43.10
2018-12-31T23:22:06.544Z,43.40
2018-12-31T23:24:36.276Z,43.70
2018-12-31T23:27:06.118Z,44.20
2018-12-31T23:29:35.928Z,44.70
2018-12-31T23:32:08.676Z,45.00
2018-12-31T23:34:49.278Z,45.00
2018-12-31T23:54:17.069Z,47.50
